Time;durP1;ratioP1;P1;durP2;ratioP2;P2;SDS_P1;SDS_P2;PMS_P1;PMS_P2;Temp;Humidity;BMP_temperature;BMP_pressure;BME280_temperature;BME280_humidity;BME280_pressure;Samples;Min_cycle;Max_cycle;Signal;HPM_P1;HPM_P2
2022/08/20 00:01:14;;;;;;;9.68;8.82;;;;;;;;;;5071929;28;20226;-76
2022/08/20 00:03:42;;;;;;;9.57;8.88;;;;;;;;;;5057008;28;20226;-75
2022/08/20 00:06:17;;;;;;;11.05;10.07;;;;;;;;;;5057628;28;20259;-75
2022/08/20 00:08:45;;;;;;;9.60;8.88;;;;;;;;;;5057297;28;20252;-75
2022/08/20 00:11:17;;;;;;;9.43;8.73;;;;;;;;;;5053435;28;21012;-75
2022/08/20 00:13:50;;;;;;;9.70;8.80;;;;;;;;;;5067090;28;20226;-75
2022/08/20 00:16:19;;;;;;;9.45;8.65;;;;;;;;;;5038332;28;20305;-75
2022/08/20 00:18:47;;;;;;;9.85;9.05;;;;;;;;;;5057208;28;20660;-74
2022/08/20 00:21:14;;;;;;;9.88;8.98;;;;;;;;;;5047052;28;20222;-74
2022/08/20 00:23:41;;;;;;;10.32;9.52;;;;;;;;;;5049199;28;20229;-74
2022/08/20 00:26:09;;;;;;;10.18;9.27;;;;;;;;;;5040522;28;20216;-74
2022/08/20 00:28:34;;;;;;;9.98;9.20;;;;;;;;;;5073964;28;20253;-74
2022/08/20 00:31:01;;;;;;;10.65;9.75;;;;;;;;;;5040189;28;20668;-75
2022/08/20 00:33:30;;;;;;;9.82;9.02;;;;;;;;;;5062272;28;20213;-75
2022/08/20 00:35:56;;;;;;;10.20;9.30;;;;;;;;;;5048170;28;20299;-75
2022/08/20 00:38:23;;;;;;;9.40;8.60;;;;;;;;;;5066550;28;20214;-74
2022/08/20 00:40:54;;;;;;;9.48;8.75;;;;;;;;;;5051816;28;20699;-74
2022/08/20 00:43:36;;;;;;;9.30;8.50;;;;;;;;;;5044663;28;20226;-74
2022/08/20 00:46:06;;;;;;;9.20;8.40;;;;;;;;;;5076153;28;20260;-75
2022/08/20 00:48:36;;;;;;;8.18;7.43;;;;;;;;;;5071015;28;20226;-75
2022/08/20 00:51:14;;;;;;;8.43;7.80;;;;;;;;;;5060102;28;20225;-75
2022/08/20 00:53:42;;;;;;;8.68;7.65;;;;;;;;;;5058120;28;20225;-76
2022/08/20 00:56:12;;;;;;;7.78;7.18;;;;;;;;;;5072935;28;20236;-76
2022/08/20 00:58:46;;;;;;;9.63;8.73;;;;;;;;;;5067416;28;20671;-75
2022/08/20 01:01:21;;;;;;;10.05;9.15;;;;;;;;;;5031660;28;20325;-75
2022/08/20 01:03:55;;;;;;;10.05;9.02;;;;;;;;;;5049843;28;20217;-76
2022/08/20 01:06:22;;;;;;;9.43;8.63;;;;;;;;;;5083361;28;20226;-76
2022/08/20 01:08:47;;;;;;;9.20;8.30;;;;;;;;;;5045165;28;20219;-76
2022/08/20 01:11:16;;;;;;;8.93;8.13;;;;;;;;;;5051601;28;20229;-75
2022/08/20 01:13:43;;;;;;;8.88;8.18;;;;;;;;;;5056795;28;20222;-76
2022/08/20 01:16:24;;;;;;;9.73;8.98;;;;;;;;;;5045307;28;20310;-76
2022/08/20 01:18:52;;;;;;;9.75;8.95;;;;;;;;;;5052896;28;20283;-76
2022/08/20 01:21:22;;;;;;;10.20;9.20;;;;;;;;;;5026820;28;20223;-76
2022/08/20 01:23:53;;;;;;;8.85;8.15;;;;;;;;;;5029346;28;20249;-74
2022/08/20 01:26:27;;;;;;;10.15;9.10;;;;;;;;;;5051195;28;20222;-76
2022/08/20 01:28:59;;;;;;;9.88;9.07;;;;;;;;;;5063835;28;20226;-75
2022/08/20 01:31:26;;;;;;;10.38;9.55;;;;;;;;;;5043226;28;20226;-76
2022/08/20 01:33:54;;;;;;;9.60;8.90;;;;;;;;;;5055448;28;20215;-75
2022/08/20 01:36:29;;;;;;;10.75;9.80;;;;;;;;;;5051282;28;20226;-75
2022/08/20 01:38:58;;;;;;;9.88;9.05;;;;;;;;;;5062984;28;20340;-76
2022/08/20 01:41:31;;;;;;;10.40;9.60;;;;;;;;;;5052573;28;20613;-76
2022/08/20 01:43:57;;;;;;;10.60;9.60;;;;;;;;;;5074147;28;20233;-75
2022/08/20 01:46:24;;;;;;;9.82;9.05;;;;;;;;;;5047996;28;20225;-75
2022/08/20 01:48:52;;;;;;;8.35;7.78;;;;;;;;;;5073354;28;20229;-75
2022/08/20 01:51:22;;;;;;;7.93;7.30;;;;;;;;;;5042119;28;20321;-76
2022/08/20 01:53:51;;;;;;;8.55;7.65;;;;;;;;;;5077415;28;20716;-76
2022/08/20 01:56:20;;;;;;;7.95;7.32;;;;;;;;;;5059731;28;20367;-76
2022/08/20 01:58:51;;;;;;;8.88;8.10;;;;;;;;;;5085827;28;20229;-75
2022/08/20 02:01:42;;;;;;;8.65;7.85;;;;;;;;;;5042876;28;20230;-75
2022/08/20 02:04:08;;;;;;;8.65;7.95;;;;;;;;;;5075467;28;20210;-75
2022/08/20 02:06:37;;;;;;;9.10;8.30;;;;;;;;;;5082596;28;20786;-75
2022/08/20 02:09:05;;;;;;;9.35;8.55;;;;;;;;;;5051998;28;20222;-76
2022/08/20 02:11:33;;;;;;;9.80;8.93;;;;;;;;;;5071339;28;20226;-75
2022/08/20 02:14:02;;;;;;;9.70;8.80;;;;;;;;;;5046258;28;20218;-76
2022/08/20 02:16:33;;;;;;;9.40;8.50;;;;;;;;;;5053658;28;20226;-75
2022/08/20 02:19:11;;;;;;;9.35;8.63;;;;;;;;;;5040600;28;20230;-75
2022/08/20 02:21:47;;;;;;;9.85;9.05;;;;;;;;;;5030734;28;20226;-76
2022/08/20 02:24:16;;;;;;;9.63;8.82;;;;;;;;;;5048922;28;20291;-75
2022/08/20 02:26:41;;;;;;;9.07;8.38;;;;;;;;;;5063830;28;20700;-75
2022/08/20 02:32:24;;;;;;;9.30;8.50;;;;;;;;;;5037502;28;20307;-77
2022/08/20 02:34:52;;;;;;;8.15;7.55;;;;;;;;;;5067091;28;20203;-76
2022/08/20 02:37:18;;;;;;;9.25;8.38;;;;;;;;;;5076103;28;20288;-76
2022/08/20 02:39:45;;;;;;;9.02;8.32;;;;;;;;;;5074175;28;20218;-76
2022/08/20 02:42:11;;;;;;;9.73;8.88;;;;;;;;;;5060259;28;20719;-76
2022/08/20 02:44:38;;;;;;;8.48;7.80;;;;;;;;;;5060111;28;20223;-76
2022/08/20 02:47:04;;;;;;;9.15;8.45;;;;;;;;;;5060269;28;20218;-75
2022/08/20 02:50:31;;;;;;;9.32;8.52;;;;;;;;;;5024811;28;20226;-76
2022/08/20 02:53:06;;;;;;;9.55;8.75;;;;;;;;;;5069543;28;20221;-76
2022/08/20 02:55:34;;;;;;;9.57;7.75;;;;;;;;;;5076337;28;20589;-77
2022/08/20 02:58:02;;;;;;;8.65;7.85;;;;;;;;;;5071369;28;20248;-75
2022/08/20 03:00:31;;;;;;;8.95;8.25;;;;;;;;;;5065264;28;20306;-76
2022/08/20 03:02:56;;;;;;;9.35;8.55;;;;;;;;;;5064309;28;20241;-75
2022/08/20 03:05:21;;;;;;;8.25;7.55;;;;;;;;;;5072547;28;20716;-76
2022/08/20 03:07:52;;;;;;;8.10;7.40;;;;;;;;;;5075367;28;20229;-76
2022/08/20 03:10:28;;;;;;;8.68;8.00;;;;;;;;;;5058251;28;20237;-76
2022/08/20 03:12:53;;;;;;;9.73;8.93;;;;;;;;;;5058305;28;20217;-76
2022/08/20 03:15:21;;;;;;;10.13;9.32;;;;;;;;;;5075242;28;20224;-76
2022/08/20 03:17:49;;;;;;;9.40;8.63;;;;;;;;;;5072006;28;20325;-76
2022/08/20 03:20:17;;;;;;;9.27;8.48;;;;;;;;;;5061042;28;20896;-76
2022/08/20 03:22:43;;;;;;;8.90;8.25;;;;;;;;;;5071796;28;20226;-77
2022/08/20 03:25:10;;;;;;;9.98;8.98;;;;;;;;;;5066385;28;20218;-75
2022/08/20 03:27:36;;;;;;;9.00;8.35;;;;;;;;;;5055691;28;20599;-75
2022/08/20 03:30:03;;;;;;;10.10;9.30;;;;;;;;;;5058319;28;20233;-75
2022/08/20 03:32:30;;;;;;;10.35;9.55;;;;;;;;;;5038606;28;20729;-75
2022/08/20 03:34:58;;;;;;;9.65;8.75;;;;;;;;;;5073069;28;20226;-76
2022/08/20 03:37:26;;;;;;;9.77;9.00;;;;;;;;;;5057688;28;20722;-75
2022/08/20 03:39:51;;;;;;;11.10;10.20;;;;;;;;;;5072823;28;20355;-75
2022/08/20 03:42:22;;;;;;;11.30;10.40;;;;;;;;;;5065079;28;20234;-75
2022/08/20 03:44:48;;;;;;;10.43;9.63;;;;;;;;;;5070311;28;20307;-77
2022/08/20 03:47:15;;;;;;;10.48;9.65;;;;;;;;;;5056465;28;20226;-76
2022/08/20 03:49:41;;;;;;;10.68;9.77;;;;;;;;;;5040957;28;20240;-76
2022/08/20 03:52:06;;;;;;;11.75;10.65;;;;;;;;;;5077156;28;20222;-76
2022/08/20 03:54:32;;;;;;;11.55;10.63;;;;;;;;;;5046496;28;20636;-76
2022/08/20 03:57:02;;;;;;;11.35;10.35;;;;;;;;;;5064822;28;20222;-75
2022/08/20 03:59:32;;;;;;;11.25;10.40;;;;;;;;;;5041669;28;20225;-76
2022/08/20 04:01:59;;;;;;;10.70;9.90;;;;;;;;;;5078062;28;20735;-76
2022/08/20 04:04:27;;;;;;;10.02;9.30;;;;;;;;;;5059498;28;20218;-76
2022/08/20 04:06:55;;;;;;;9.73;9.00;;;;;;;;;;5069165;28;20226;-77
2022/08/20 04:09:23;;;;;;;9.77;8.90;;;;;;;;;;5076651;28;20225;-76
2022/08/20 04:11:52;;;;;;;10.30;9.45;;;;;;;;;;5063745;28;20225;-76
2022/08/20 04:14:20;;;;;;;9.60;8.75;;;;;;;;;;5076453;28;20720;-76
2022/08/20 04:16:45;;;;;;;9.88;8.90;;;;;;;;;;5075787;28;20237;-76
2022/08/20 04:19:15;;;;;;;9.52;8.82;;;;;;;;;;5074316;28;20222;-75
2022/08/20 04:21:43;;;;;;;9.65;8.73;;;;;;;;;;5061006;28;20719;-75
2022/08/20 04:24:14;;;;;;;9.68;8.98;;;;;;;;;;5056943;28;20234;-76
2022/08/20 04:26:40;;;;;;;8.80;7.97;;;;;;;;;;5090552;28;20221;-75
2022/08/20 04:29:08;;;;;;;7.55;7.05;;;;;;;;;;5078848;28;20223;-75
2022/08/20 04:31:38;;;;;;;8.70;7.90;;;;;;;;;;5063390;28;20221;-76
2022/08/20 04:34:09;;;;;;;8.32;7.72;;;;;;;;;;5060591;28;20295;-76
2022/08/20 04:36:35;;;;;;;7.55;7.05;;;;;;;;;;5057843;28;20233;-76
2022/08/20 04:39:01;;;;;;;7.30;6.75;;;;;;;;;;5081241;28;20217;-74
2022/08/20 04:41:31;;;;;;;7.53;6.93;;;;;;;;;;5044304;28;21021;-76
2022/08/20 04:43:59;;;;;;;7.35;6.85;;;;;;;;;;5076248;28;20841;-74
2022/08/20 04:46:26;;;;;;;7.32;6.80;;;;;;;;;;5047139;28;20210;-75
2022/08/20 04:48:53;;;;;;;7.57;6.97;;;;;;;;;;5063563;28;20222;-75
2022/08/20 04:51:18;;;;;;;7.50;6.97;;;;;;;;;;5044970;28;20735;-75
2022/08/20 04:53:46;;;;;;;8.10;7.50;;;;;;;;;;5060111;28;20235;-75
2022/08/20 04:56:18;;;;;;;6.85;6.35;;;;;;;;;;5061311;28;20222;-76
2022/08/20 04:58:49;;;;;;;7.68;7.05;;;;;;;;;;5079944;28;20596;-75
2022/08/20 05:01:15;;;;;;;7.47;6.70;;;;;;;;;;5063171;28;20222;-75
2022/08/20 05:03:41;;;;;;;6.90;6.30;;;;;;;;;;5074989;28;20582;-75
2022/08/20 05:06:07;;;;;;;6.68;6.15;;;;;;;;;;5075756;28;20222;-75
2022/08/20 05:08:34;;;;;;;6.43;5.82;;;;;;;;;;5063948;28;20351;-76
2022/08/20 05:11:00;;;;;;;6.15;5.55;;;;;;;;;;5076384;28;20323;-75
2022/08/20 05:13:30;;;;;;;6.15;5.57;;;;;;;;;;5028365;28;20309;-75
2022/08/20 05:16:00;;;;;;;6.15;5.65;;;;;;;;;;5078218;28;20244;-75
2022/08/20 05:18:32;;;;;;;5.68;5.20;;;;;;;;;;5069456;28;20221;-77
2022/08/20 05:21:06;;;;;;;5.75;5.25;;;;;;;;;;5059207;28;20712;-76
2022/08/20 05:23:35;;;;;;;5.30;4.90;;;;;;;;;;5052470;28;20228;-76
2022/08/20 05:26:06;;;;;;;5.43;4.93;;;;;;;;;;5034214;28;20242;-77
2022/08/20 05:28:34;;;;;;;5.50;5.10;;;;;;;;;;5062179;28;20301;-78
2022/08/20 05:31:04;;;;;;;6.57;4.95;;;;;;;;;;5079695;28;20672;-76
2022/08/20 05:33:29;;;;;;;9.13;5.25;;;;;;;;;;5063651;28;20630;-76
2022/08/20 05:35:55;;;;;;;5.20;4.78;;;;;;;;;;5079360;28;20218;-76
2022/08/20 05:38:23;;;;;;;6.03;5.50;;;;;;;;;;5059479;28;20234;-76
2022/08/20 05:40:48;;;;;;;5.35;4.85;;;;;;;;;;5071346;28;20767;-75
2022/08/20 05:43:19;;;;;;;5.20;4.70;;;;;;;;;;5043561;28;20309;-76
2022/08/20 05:45:51;;;;;;;6.32;4.82;;;;;;;;;;5064091;28;20631;-75
2022/08/20 05:48:24;;;;;;;6.15;5.55;;;;;;;;;;5066906;28;20213;-75
2022/08/20 05:50:50;;;;;;;5.40;5.00;;;;;;;;;;5052144;28;20219;-75
2022/08/20 05:53:23;;;;;;;5.03;4.65;;;;;;;;;;5055215;28;20214;-75
2022/08/20 05:55:49;;;;;;;5.60;5.10;;;;;;;;;;5044191;28;20219;-75
2022/08/20 05:58:23;;;;;;;5.38;4.88;;;;;;;;;;5050050;28;20234;-75
2022/08/20 06:00:51;;;;;;;5.25;4.45;;;;;;;;;;5078479;28;20700;-75
2022/08/20 06:06:11;;;;;;;5.35;4.95;;;;;;;;;;5050974;28;20246;-75
2022/08/20 06:08:36;;;;;;;5.20;4.78;;;;;;;;;;5073870;28;20280;-75
2022/08/20 06:11:02;;;;;;;5.38;4.88;;;;;;;;;;5054359;28;20218;-75
2022/08/20 06:13:27;;;;;;;5.10;4.70;;;;;;;;;;5040004;28;20222;-75
2022/08/20 06:15:54;;;;;;;5.85;5.30;;;;;;;;;;5065535;28;20577;-76
2022/08/20 06:18:20;;;;;;;7.20;6.50;;;;;;;;;;5063856;28;20336;-75
2022/08/20 06:20:50;;;;;;;6.32;5.70;;;;;;;;;;5042838;28;20242;-75
2022/08/20 06:23:16;;;;;;;6.30;5.65;;;;;;;;;;5050289;28;20214;-75
2022/08/20 06:25:41;;;;;;;5.88;5.28;;;;;;;;;;5064707;28;20245;-75
2022/08/20 06:28:07;;;;;;;6.47;5.88;;;;;;;;;;5049570;28;20704;-75
2022/08/20 06:30:37;;;;;;;6.07;5.57;;;;;;;;;;5083954;28;20249;-75
2022/08/20 06:33:03;;;;;;;5.65;5.15;;;;;;;;;;5064994;28;20645;-75
2022/08/20 06:35:33;;;;;;;6.50;5.55;;;;;;;;;;5065614;28;20222;-75
2022/08/20 06:37:59;;;;;;;5.68;5.18;;;;;;;;;;5057582;28;20288;-75
2022/08/20 06:40:27;;;;;;;5.50;5.00;;;;;;;;;;5052317;28;20210;-75
2022/08/20 06:42:58;;;;;;;5.25;4.78;;;;;;;;;;5042375;28;20321;-74
2022/08/20 06:45:27;;;;;;;5.00;4.55;;;;;;;;;;5063385;28;20217;-75
2022/08/20 06:47:56;;;;;;;5.50;5.10;;;;;;;;;;5073252;28;20215;-74
2022/08/20 06:50:30;;;;;;;5.70;5.20;;;;;;;;;;5057707;28;20234;-74
2022/08/20 06:52:58;;;;;;;5.30;4.90;;;;;;;;;;5046325;28;20228;-74
2022/08/20 06:55:24;;;;;;;6.28;5.47;;;;;;;;;;5062132;28;20221;-75
2022/08/20 06:58:00;;;;;;;5.80;5.22;;;;;;;;;;5071370;28;20288;-75
2022/08/20 07:00:25;;;;;;;5.93;5.43;;;;;;;;;;5075465;28;20218;-75
2022/08/20 07:02:53;;;;;;;8.30;5.63;;;;;;;;;;5039721;28;20664;-75
2022/08/20 07:05:21;;;;;;;5.82;5.15;;;;;;;;;;5045513;28;20317;-75
2022/08/20 07:07:51;;;;;;;5.63;5.13;;;;;;;;;;5045792;28;20215;-75
2022/08/20 07:10:22;;;;;;;5.28;4.88;;;;;;;;;;5070293;28;20230;-75
2022/08/20 07:12:50;;;;;;;6.13;5.63;;;;;;;;;;5047750;28;20226;-75
2022/08/20 07:15:16;;;;;;;6.00;5.50;;;;;;;;;;5056638;28;20219;-75
2022/08/20 07:17:55;;;;;;;4.63;4.22;;;;;;;;;;5065241;28;20360;-75
2022/08/20 07:20:21;;;;;;;6.80;6.20;;;;;;;;;;5065208;28;20222;-75
2022/08/20 07:22:48;;;;;;;5.88;5.38;;;;;;;;;;5041436;28;20241;-76
2022/08/20 07:25:17;;;;;;;7.20;6.50;;;;;;;;;;5058076;28;20223;-75
2022/08/20 07:27:46;;;;;;;6.88;6.28;;;;;;;;;;5063358;28;20323;-76
2022/08/20 07:33:06;;;;;;;8.88;7.82;;;;;;;;;;5071265;28;20218;-76
2022/08/20 07:35:33;;;;;;;7.65;6.95;;;;;;;;;;5081047;28;20305;-74
2022/08/20 07:38:01;;;;;;;8.57;7.65;;;;;;;;;;5059081;28;20227;-75
2022/08/20 07:40:30;;;;;;;8.05;7.35;;;;;;;;;;5048192;28;20225;-75
2022/08/20 07:43:01;;;;;;;8.45;7.55;;;;;;;;;;5047107;28;20218;-76
2022/08/20 07:45:29;;;;;;;9.07;8.18;;;;;;;;;;5049720;28;20215;-75
2022/08/20 07:47:54;;;;;;;7.22;6.60;;;;;;;;;;5077304;28;20704;-74
2022/08/20 07:50:27;;;;;;;7.05;6.45;;;;;;;;;;5044196;28;20242;-75
2022/08/20 07:52:52;;;;;;;6.40;5.90;;;;;;;;;;5063199;28;20283;-75
2022/08/20 07:55:23;;;;;;;7.70;7.00;;;;;;;;;;5065445;28;20214;-76
2022/08/20 07:57:51;;;;;;;7.18;6.57;;;;;;;;;;5071431;28;20221;-76
2022/08/20 08:00:18;;;;;;;7.35;6.47;;;;;;;;;;5070071;28;20314;-77
2022/08/20 08:02:46;;;;;;;6.50;6.00;;;;;;;;;;5043639;28;20342;-76
2022/08/20 08:05:17;;;;;;;7.28;6.57;;;;;;;;;;5049255;28;20627;-75
2022/08/20 08:07:43;;;;;;;6.18;5.45;;;;;;;;;;5071111;28;20256;-77
2022/08/20 08:10:17;;;;;;;5.00;4.60;;;;;;;;;;5043225;28;20287;-75
2022/08/20 08:12:47;;;;;;;4.68;4.07;;;;;;;;;;5039403;28;20233;-75
2022/08/20 08:15:26;;;;;;;3.53;3.22;;;;;;;;;;5069690;28;20218;-77
2022/08/20 08:17:51;;;;;;;4.57;4.18;;;;;;;;;;5044906;28;20946;-76
2022/08/20 08:20:21;;;;;;;4.30;3.90;;;;;;;;;;5037223;28;20289;-76
2022/08/20 08:22:46;;;;;;;4.10;3.80;;;;;;;;;;5029664;28;20249;-77
2022/08/20 08:25:13;;;;;;;5.57;3.80;;;;;;;;;;5028700;28;20254;-76
2022/08/20 08:27:39;;;;;;;3.45;3.20;;;;;;;;;;5049292;28;20230;-76
2022/08/20 08:30:05;;;;;;;4.10;3.78;;;;;;;;;;5020118;28;20226;-76
2022/08/20 08:32:31;;;;;;;7.20;3.10;;;;;;;;;;5081123;28;20230;-75
2022/08/20 08:34:59;;;;;;;4.07;3.20;;;;;;;;;;5076076;28;20352;-75
2022/08/20 08:37:27;;;;;;;3.53;3.22;;;;;;;;;;5057616;28;20229;-75
2022/08/20 08:39:58;;;;;;;3.53;3.22;;;;;;;;;;5060243;28;20743;-76
2022/08/20 08:42:40;;;;;;;3.50;3.20;;;;;;;;;;5072306;28;20302;-75
2022/08/20 08:45:07;;;;;;;3.55;3.00;;;;;;;;;;5057866;28;20218;-76
2022/08/20 08:47:35;;;;;;;2.70;2.50;;;;;;;;;;5027317;28;20607;-76
2022/08/20 08:50:01;;;;;;;3.08;2.88;;;;;;;;;;5053579;28;20233;-76
2022/08/20 08:52:30;;;;;;;4.20;3.80;;;;;;;;;;5035168;28;20479;-76
2022/08/20 08:55:02;;;;;;;4.35;3.38;;;;;;;;;;5061504;28;20215;-77
2022/08/20 08:57:30;;;;;;;3.35;3.08;;;;;;;;;;5040460;28;20234;-76
2022/08/20 09:00:01;;;;;;;2.42;2.22;;;;;;;;;;5078639;28;20224;-76
2022/08/20 09:02:29;;;;;;;2.83;2.63;;;;;;;;;;5047442;28;20230;-76
2022/08/20 09:04:55;;;;;;;3.42;3.13;;;;;;;;;;5048724;28;20233;-76
2022/08/20 09:07:24;;;;;;;3.60;3.30;;;;;;;;;;5046066;28;20222;-78
2022/08/20 09:09:50;;;;;;;3.35;3.03;;;;;;;;;;5074426;28;20223;-75
2022/08/20 09:12:20;;;;;;;2.80;2.60;;;;;;;;;;5033132;28;20222;-75
2022/08/20 09:14:47;;;;;;;3.22;2.92;;;;;;;;;;5050541;28;20300;-77
2022/08/20 09:17:15;;;;;;;3.80;3.40;;;;;;;;;;5048723;28;20230;-76
2022/08/20 09:19:43;;;;;;;3.40;2.95;;;;;;;;;;5059785;28;20215;-76
2022/08/20 09:22:12;;;;;;;3.08;2.88;;;;;;;;;;5070696;28;20697;-76
2022/08/20 09:24:40;;;;;;;3.20;2.90;;;;;;;;;;5070154;28;20211;-76
2022/08/20 09:27:06;;;;;;;3.28;2.97;;;;;;;;;;5050568;28;20229;-75
2022/08/20 09:29:34;;;;;;;3.75;3.30;;;;;;;;;;5051306;28;20222;-77
2022/08/20 09:32:20;;;;;;;4.43;3.05;;;;;;;;;;5047528;28;20233;-75
2022/08/20 09:34:47;;;;;;;4.15;3.50;;;;;;;;;;5067873;28;20223;-77
2022/08/20 09:37:15;;;;;;;3.58;3.28;;;;;;;;;;5058663;28;20219;-78
2022/08/20 09:39:43;;;;;;;5.07;3.97;;;;;;;;;;5059398;28;20291;-76
2022/08/20 09:42:13;;;;;;;4.47;4.18;;;;;;;;;;5066566;28;21061;-75
2022/08/20 09:44:41;;;;;;;5.32;4.88;;;;;;;;;;5055149;28;20219;-76
2022/08/20 09:47:07;;;;;;;6.55;5.13;;;;;;;;;;5065449;28;20237;-76
2022/08/20 09:49:39;;;;;;;7.70;5.07;;;;;;;;;;5040596;28;20211;-76
2022/08/20 09:52:12;;;;;;;5.28;4.78;;;;;;;;;;5045786;28;20249;-75
2022/08/20 09:54:40;;;;;;;5.32;4.82;;;;;;;;;;5050238;28;20218;-76
2022/08/20 09:57:06;;;;;;;4.97;4.47;;;;;;;;;;5059125;28;20221;-75
2022/08/20 09:59:33;;;;;;;6.32;5.35;;;;;;;;;;5078755;28;20218;-76
2022/08/20 10:02:01;;;;;;;8.13;5.25;;;;;;;;;;5057761;28;20223;-76
2022/08/20 10:04:27;;;;;;;4.13;3.78;;;;;;;;;;5063974;28;20244;-74
2022/08/20 10:06:55;;;;;;;4.00;3.70;;;;;;;;;;5050353;28;20638;-75
2022/08/20 10:09:23;;;;;;;4.55;4.15;;;;;;;;;;5046184;28;20260;-75
2022/08/20 10:11:51;;;;;;;6.40;4.38;;;;;;;;;;5041861;28;20304;-75
2022/08/20 10:14:18;;;;;;;4.53;3.67;;;;;;;;;;5079006;28;20222;-76
2022/08/20 10:16:53;;;;;;;4.10;3.70;;;;;;;;;;5075885;28;20223;-75
2022/08/20 10:19:18;;;;;;;3.47;3.15;;;;;;;;;;5062913;28;20308;-75
2022/08/20 10:21:44;;;;;;;4.00;3.30;;;;;;;;;;5082314;28;20270;-75
2022/08/20 10:24:09;;;;;;;3.25;2.47;;;;;;;;;;5071142;28;20211;-75
2022/08/20 10:26:40;;;;;;;2.90;2.10;;;;;;;;;;5066927;28;20228;-75
2022/08/20 10:29:09;;;;;;;4.03;2.10;;;;;;;;;;5048137;28;20221;-75
2022/08/20 10:31:35;;;;;;;4.75;2.38;;;;;;;;;;5065689;28;20243;-75
2022/08/20 10:34:00;;;;;;;3.25;2.33;;;;;;;;;;5049300;28;20223;-76
2022/08/20 10:36:29;;;;;;;2.17;2.00;;;;;;;;;;5037652;28;20218;-75
2022/08/20 10:38:57;;;;;;;2.80;2.28;;;;;;;;;;5028125;28;20303;-75
2022/08/20 10:41:24;;;;;;;2.25;2.03;;;;;;;;;;5059791;28;20267;-76
2022/08/20 10:43:52;;;;;;;3.38;2.42;;;;;;;;;;5075677;28;20314;-76
2022/08/20 10:46:18;;;;;;;3.80;2.22;;;;;;;;;;5071592;28;20240;-76
2022/08/20 10:48:48;;;;;;;2.17;1.92;;;;;;;;;;5063470;28;20297;-75
2022/08/20 10:51:15;;;;;;;2.85;2.13;;;;;;;;;;5047611;28;20234;-76
2022/08/20 10:53:48;;;;;;;2.45;1.80;;;;;;;;;;5067754;28;20619;-76
2022/08/20 10:56:16;;;;;;;2.67;2.03;;;;;;;;;;5074953;28;20250;-77
2022/08/20 10:58:42;;;;;;;2.55;1.88;;;;;;;;;;5040773;28;20215;-78
2022/08/20 11:01:07;;;;;;;2.00;1.77;;;;;;;;;;5037598;28;20226;-75
2022/08/20 11:03:33;;;;;;;1.85;1.73;;;;;;;;;;5043884;28;20234;-76
2022/08/20 11:05:59;;;;;;;2.88;1.90;;;;;;;;;;5048965;28;20218;-76
2022/08/20 11:08:32;;;;;;;3.13;1.90;;;;;;;;;;5061347;28;20329;-76
2022/08/20 11:11:04;;;;;;;2.55;1.65;;;;;;;;;;5066690;28;20222;-75
2022/08/20 11:13:33;;;;;;;2.83;1.95;;;;;;;;;;5071288;28;20238;-75
2022/08/20 11:15:59;;;;;;;3.40;1.80;;;;;;;;;;5042950;28;20219;-76
2022/08/20 11:18:24;;;;;;;5.03;1.80;;;;;;;;;;5041769;28;20311;-76
2022/08/20 11:20:51;;;;;;;2.03;1.48;;;;;;;;;;5069705;28;20214;-77
2022/08/20 11:23:16;;;;;;;2.92;1.75;;;;;;;;;;5072149;28;20654;-76
2022/08/20 11:25:42;;;;;;;2.42;1.55;;;;;;;;;;5038155;28;20232;-76
2022/08/20 11:28:07;;;;;;;1.50;1.40;;;;;;;;;;5044717;28;20222;-76
2022/08/20 11:30:37;;;;;;;1.92;1.48;;;;;;;;;;5048331;28;20224;-76
2022/08/20 11:33:08;;;;;;;2.10;1.50;;;;;;;;;;5040929;28;20218;-78
2022/08/20 11:35:34;;;;;;;1.88;1.63;;;;;;;;;;5042418;28;20268;-76
2022/08/20 11:38:00;;;;;;;3.47;1.73;;;;;;;;;;5025043;28;20264;-77
2022/08/20 11:40:28;;;;;;;3.83;1.83;;;;;;;;;;5072626;28;20219;-76
2022/08/20 11:42:59;;;;;;;1.90;1.80;;;;;;;;;;5047958;28;20743;-76
2022/08/20 11:45:24;;;;;;;3.53;1.80;;;;;;;;;;5069170;28;20237;-76
2022/08/20 11:47:50;;;;;;;2.35;1.63;;;;;;;;;;5075251;28;20214;-76
2022/08/20 11:50:17;;;;;;;3.03;1.58;;;;;;;;;;5064348;28;20218;-76
2022/08/20 11:52:43;;;;;;;2.47;1.88;;;;;;;;;;5058969;28;20228;-76
2022/08/20 11:55:10;;;;;;;3.15;1.65;;;;;;;;;;5077557;28;20245;-76
2022/08/20 11:57:43;;;;;;;2.17;1.92;;;;;;;;;;5061190;28;20699;-77
2022/08/20 12:00:13;;;;;;;3.30;2.17;;;;;;;;;;5040889;28;20272;-74
2022/08/20 12:02:41;;;;;;;4.90;2.15;;;;;;;;;;5024134;28;20224;-76
2022/08/20 12:05:11;;;;;;;2.85;1.90;;;;;;;;;;5046746;28;20221;-75
2022/08/20 12:07:39;;;;;;;5.30;2.15;;;;;;;;;;5061113;28;20218;-76
2022/08/20 12:10:05;;;;;;;3.90;2.40;;;;;;;;;;5058951;28;20222;-76
2022/08/20 12:12:33;;;;;;;2.25;1.90;;;;;;;;;;5042542;28;20227;-75
2022/08/20 12:14:58;;;;;;;3.22;2.05;;;;;;;;;;5073631;28;20305;-75
2022/08/20 12:17:26;;;;;;;3.08;1.92;;;;;;;;;;5072776;28;20230;-75
2022/08/20 12:19:52;;;;;;;4.75;2.15;;;;;;;;;;5061617;28;20705;-76
2022/08/20 12:22:18;;;;;;;2.60;1.70;;;;;;;;;;5060164;28;20237;-76
2022/08/20 12:24:43;;;;;;;3.03;2.13;;;;;;;;;;5048670;28;20325;-75
2022/08/20 12:27:14;;;;;;;5.53;2.03;;;;;;;;;;5053643;28;20226;-75
2022/08/20 12:29:41;;;;;;;7.03;2.10;;;;;;;;;;5069889;28;20218;-77
2022/08/20 12:32:09;;;;;;;2.60;1.73;;;;;;;;;;5069832;28;20245;-76
2022/08/20 12:34:35;;;;;;;4.68;2.10;;;;;;;;;;5070621;28;21215;-77
2022/08/20 12:37:02;;;;;;;4.32;2.28;;;;;;;;;;5050540;28;20245;-75
2022/08/20 12:39:34;;;;;;;5.82;2.40;;;;;;;;;;5039722;28;20215;-77
2022/08/20 12:42:04;;;;;;;4.32;2.00;;;;;;;;;;5053978;28;20579;-76
2022/08/20 12:44:30;;;;;;;2.83;1.98;;;;;;;;;;5067916;28;20230;-76
2022/08/20 12:47:13;;;;;;;5.05;2.13;;;;;;;;;;5059119;28;20210;-75
2022/08/20 12:49:46;;;;;;;3.42;2.00;;;;;;;;;;5069879;28;20250;-75
2022/08/20 12:52:17;;;;;;;4.28;1.88;;;;;;;;;;5094865;28;20742;-75
2022/08/20 12:54:42;;;;;;;4.40;2.30;;;;;;;;;;5062320;28;20219;-74
2022/08/20 12:57:35;;;;;;;2.92;1.90;;;;;;;;;;5057393;28;20723;-74
2022/08/20 13:00:09;;;;;;;5.65;1.90;;;;;;;;;;5075461;28;20214;-75
2022/08/20 13:02:34;;;;;;;3.53;1.83;;;;;;;;;;5058953;28;20219;-75
2022/08/20 13:05:02;;;;;;;3.85;1.90;;;;;;;;;;5048738;28;20604;-75
2022/08/20 13:07:28;;;;;;;4.93;1.73;;;;;;;;;;5063160;28;20248;-75
2022/08/20 13:09:53;;;;;;;4.55;1.70;;;;;;;;;;5054822;28;20221;-75
2022/08/20 13:12:21;;;;;;;3.28;1.80;;;;;;;;;;5040701;28;20222;-76
2022/08/20 13:14:49;;;;;;;2.85;1.63;;;;;;;;;;5068081;28;20308;-76
2022/08/20 13:17:17;;;;;;;9.90;2.10;;;;;;;;;;5068339;28;20770;-75
2022/08/20 13:19:45;;;;;;;3.15;1.90;;;;;;;;;;5062511;28;20214;-76
2022/08/20 13:22:11;;;;;;;4.88;1.60;;;;;;;;;;5064039;28;20238;-76
2022/08/20 13:24:37;;;;;;;4.18;1.55;;;;;;;;;;5055089;28;20735;-75
2022/08/20 13:27:12;;;;;;;1.88;1.10;;;;;;;;;;5054539;28;20218;-75
2022/08/20 13:29:47;;;;;;;5.05;1.70;;;;;;;;;;5070057;28;20222;-75
2022/08/20 13:32:13;;;;;;;4.05;1.55;;;;;;;;;;5056540;28;20337;-76
2022/08/20 13:34:41;;;;;;;1.55;1.30;;;;;;;;;;5042449;28;20242;-75
2022/08/20 13:37:22;;;;;;;4.05;1.70;;;;;;;;;;5045139;28;20730;-76
2022/08/20 13:39:53;;;;;;;2.17;1.35;;;;;;;;;;5068352;28;20604;-76
2022/08/20 13:42:23;;;;;;;3.70;1.60;;;;;;;;;;5067873;28;20307;-76
2022/08/20 13:44:48;;;;;;;3.35;1.55;;;;;;;;;;5072971;28;20713;-75
2022/08/20 13:47:15;;;;;;;2.75;1.50;;;;;;;;;;5044026;28;20211;-76
2022/08/20 13:49:44;;;;;;;6.30;1.67;;;;;;;;;;5061365;28;20699;-76
2022/08/20 13:52:09;;;;;;;5.03;1.65;;;;;;;;;;5042350;28;20269;-75
2022/08/20 13:54:37;;;;;;;2.42;1.30;;;;;;;;;;5056775;28;20301;-76
2022/08/20 13:57:13;;;;;;;3.50;1.52;;;;;;;;;;5058541;28;20300;-75
2022/08/20 13:59:42;;;;;;;4.15;1.30;;;;;;;;;;5065317;28;20230;-75
2022/08/20 14:02:08;;;;;;;4.18;1.30;;;;;;;;;;5060058;28;20230;-76
2022/08/20 14:04:41;;;;;;;2.47;1.20;;;;;;;;;;5083282;28;20238;-76
2022/08/20 14:07:09;;;;;;;2.75;1.25;;;;;;;;;;5049290;28;20218;-77
2022/08/20 14:09:41;;;;;;;3.47;1.40;;;;;;;;;;5071448;28;20226;-75
2022/08/20 14:12:09;;;;;;;1.95;1.38;;;;;;;;;;5049523;28;20238;-76
2022/08/20 14:14:39;;;;;;;4.07;1.35;;;;;;;;;;5051343;28;20313;-75
2022/08/20 14:17:25;;;;;;;2.53;1.08;;;;;;;;;;5055993;28;20234;-75
2022/08/20 14:19:55;;;;;;;4.75;1.33;;;;;;;;;;5060318;28;20227;-75
2022/08/20 14:22:22;;;;;;;1.15;0.85;;;;;;;;;;5060707;28;20756;-75
2022/08/20 14:24:51;;;;;;;3.78;1.15;;;;;;;;;;5042192;28;20214;-75
2022/08/20 14:27:18;;;;;;;1.33;0.90;;;;;;;;;;5049477;28;20720;-75
2022/08/20 14:29:46;;;;;;;2.70;1.30;;;;;;;;;;5055131;28;20233;-76
2022/08/20 14:32:19;;;;;;;1.63;1.10;;;;;;;;;;5058035;28;20226;-77
2022/08/20 14:34:52;;;;;;;3.38;1.30;;;;;;;;;;5062766;28;20310;-76
2022/08/20 14:37:21;;;;;;;6.13;1.50;;;;;;;;;;5082297;28;20231;-75
2022/08/20 14:39:55;;;;;;;5.75;1.50;;;;;;;;;;5061984;28;20222;-76
2022/08/20 14:42:21;;;;;;;3.65;1.30;;;;;;;;;;5066736;28;20227;-75
2022/08/20 14:44:49;;;;;;;3.25;1.30;;;;;;;;;;5043624;28;20223;-75
2022/08/20 14:47:16;;;;;;;4.78;1.25;;;;;;;;;;5057929;28;20329;-75
2022/08/20 14:49:44;;;;;;;5.55;1.55;;;;;;;;;;5064885;28;20724;-74
2022/08/20 14:52:14;;;;;;;4.00;1.27;;;;;;;;;;5057982;28;20222;-75
2022/08/20 14:54:40;;;;;;;2.10;1.23;;;;;;;;;;5066431;28;20347;-75
2022/08/20 14:57:10;;;;;;;5.03;1.58;;;;;;;;;;5073061;28;20222;-76
2022/08/20 14:59:36;;;;;;;1.85;1.08;;;;;;;;;;5080076;28;20228;-75